createdAt,value
2018-03-19T00:02:02.716Z,4.83
2018-03-19T00:04:30.832Z,4.50
2018-03-19T00:06:58.985Z,4.87
2018-03-19T00:09:27.122Z,4.80
2018-03-19T00:11:55.274Z,4.60
2018-03-19T00:14:23.405Z,4.93
2018-03-19T00:16:51.545Z,4.70
2018-03-19T00:19:19.668Z,4.47
2018-03-19T00:21:47.789Z,4.80
2018-03-19T00:24:15.927Z,4.70
2018-03-19T00:26:44.047Z,4.80
2018-03-19T00:29:12.182Z,5.30
2018-03-19T00:31:40.335Z,5.50
2018-03-19T00:34:08.477Z,5.10
2018-03-19T00:36:36.620Z,5.27
2018-03-19T00:39:04.884Z,5.20
2018-03-19T00:41:33.101Z,4.40
2018-03-19T00:44:01.232Z,4.40
2018-03-19T00:46:29.377Z,4.77
2018-03-19T00:48:57.504Z,5.07
2018-03-19T00:51:25.662Z,5.03
2018-03-19T00:53:53.797Z,4.50
2018-03-19T00:56:21.937Z,4.83
2018-03-19T00:58:50.064Z,4.73
2018-03-19T01:01:18.200Z,5.33
2018-03-19T01:03:46.348Z,5.20
2018-03-19T01:06:14.497Z,5.30
2018-03-19T01:08:42.621Z,5.13
2018-03-19T01:11:10.758Z,4.43
2018-03-19T01:13:38.907Z,5.10
2018-03-19T01:16:07.050Z,5.33
2018-03-19T01:18:35.196Z,4.87
2018-03-19T01:21:03.479Z,4.80
2018-03-19T01:23:31.625Z,5.03
2018-03-19T01:25:59.764Z,5.17
2018-03-19T01:28:27.897Z,4.90
2018-03-19T01:30:56.040Z,4.63
2018-03-19T01:33:24.177Z,5.13
2018-03-19T01:35:52.324Z,4.70
2018-03-19T01:38:20.478Z,5.30
2018-03-19T01:40:48.609Z,5.00
2018-03-19T01:43:16.753Z,5.10
2018-03-19T01:45:44.909Z,5.13
2018-03-19T01:48:13.061Z,4.73
2018-03-19T01:50:41.197Z,4.87
2018-03-19T01:53:09.341Z,5.23
2018-03-19T01:55:37.495Z,4.93
2018-03-19T01:58:05.619Z,5.00
2018-03-19T02:00:33.750Z,4.53
2018-03-19T02:03:01.913Z,4.67
2018-03-19T02:05:30.042Z,4.50
2018-03-19T02:07:58.191Z,4.83
2018-03-19T02:10:26.472Z,5.30
2018-03-19T02:12:54.610Z,4.90
2018-03-19T02:15:22.839Z,4.90
2018-03-19T02:17:50.920Z,5.03
2018-03-19T02:20:19.087Z,4.80
2018-03-19T02:22:47.230Z,5.30
2018-03-19T02:25:15.400Z,5.17
2018-03-19T02:27:43.545Z,5.27
2018-03-19T02:30:11.708Z,5.30
2018-03-19T02:32:39.829Z,5.13
2018-03-19T02:35:07.965Z,5.37
2018-03-19T02:37:36.115Z,5.10
2018-03-19T02:40:04.255Z,5.00
2018-03-19T02:42:34.308Z,4.90
2018-03-19T02:45:02.440Z,5.60
2018-03-19T02:47:30.587Z,5.27
2018-03-19T02:49:58.736Z,5.33
2018-03-19T02:52:26.881Z,5.67
2018-03-19T02:54:55.098Z,5.70
2018-03-19T02:57:23.226Z,5.63
2018-03-19T02:59:51.363Z,5.60
2018-03-19T03:02:19.513Z,5.40
2018-03-19T03:04:47.694Z,5.23
2018-03-19T03:07:15.813Z,5.70
2018-03-19T03:09:43.960Z,5.70
2018-03-19T03:12:12.136Z,6.03
2018-03-19T03:14:40.262Z,5.53
2018-03-19T03:17:08.407Z,6.30
2018-03-19T03:19:36.549Z,5.83
2018-03-19T03:22:04.695Z,5.90
2018-03-19T03:24:32.829Z,5.50
2018-03-19T03:27:00.988Z,5.80
2018-03-19T03:29:29.124Z,5.70
2018-03-19T03:31:57.263Z,5.30
2018-03-19T03:34:25.391Z,5.63
2018-03-19T03:36:53.552Z,5.50
2018-03-19T03:39:21.691Z,6.60
2018-03-19T03:41:49.829Z,5.83
2018-03-19T03:44:17.992Z,5.60
2018-03-19T03:46:46.147Z,6.03
2018-03-19T03:49:14.268Z,6.37
2018-03-19T03:51:42.416Z,5.77
2018-03-19T03:54:13.952Z,6.37
2018-03-19T03:56:42.085Z,6.20
2018-03-19T03:59:10.295Z,6.27
2018-03-19T04:01:38.449Z,6.70
2018-03-19T04:04:06.581Z,6.03
2018-03-19T04:06:34.747Z,6.00
2018-03-19T04:09:02.889Z,5.70
2018-03-19T04:11:31.045Z,5.60
2018-03-19T04:13:59.185Z,5.33
2018-03-19T04:16:27.338Z,5.93
2018-03-19T04:18:59.202Z,6.03
2018-03-19T04:21:27.466Z,5.83
2018-03-19T04:23:56.008Z,6.20
2018-03-19T04:26:24.140Z,5.90
2018-03-19T04:28:52.552Z,6.10
2018-03-19T04:31:20.704Z,6.47
2018-03-19T04:33:48.852Z,6.37
2018-03-19T04:36:16.978Z,5.87
2018-03-19T04:38:45.134Z,6.50
2018-03-19T04:41:13.308Z,5.90
2018-03-19T04:43:41.443Z,6.03
2018-03-19T04:46:09.811Z,6.70
2018-03-19T04:48:37.963Z,6.03
2018-03-19T04:51:06.123Z,5.83
2018-03-19T04:53:34.241Z,6.30
2018-03-19T04:56:02.411Z,6.50
2018-03-19T04:58:30.532Z,6.27
2018-03-19T05:00:58.697Z,6.33
2018-03-19T05:03:26.931Z,6.80
2018-03-19T05:05:55.085Z,6.70
2018-03-19T05:08:23.211Z,5.67
2018-03-19T05:10:51.391Z,6.43
2018-03-19T05:13:19.544Z,6.90
2018-03-19T05:15:47.699Z,6.37
2018-03-19T05:18:15.829Z,6.37
2018-03-19T05:20:43.988Z,6.63
2018-03-19T05:23:12.154Z,6.27
2018-03-19T05:25:42.306Z,6.60
2018-03-19T05:28:10.444Z,6.53
2018-03-19T05:30:38.597Z,6.53
2018-03-19T05:33:06.789Z,6.80
2018-03-19T05:35:34.903Z,6.83
2018-03-19T05:38:03.081Z,6.77
2018-03-19T05:40:31.216Z,6.10
2018-03-19T05:42:59.369Z,5.87
2018-03-19T05:45:27.574Z,6.07
2018-03-19T05:47:55.787Z,6.60
2018-03-19T05:50:23.907Z,6.90
2018-03-19T05:52:52.061Z,6.33
2018-03-19T05:55:20.225Z,6.43
2018-03-19T05:57:48.385Z,6.80
2018-03-19T06:00:16.561Z,6.87
2018-03-19T06:02:44.966Z,5.93
2018-03-19T06:05:13.124Z,6.37
2018-03-19T06:07:41.265Z,6.77
2018-03-19T06:10:09.439Z,6.80
2018-03-19T06:12:37.633Z,7.07
2018-03-19T06:15:05.736Z,6.83
2018-03-19T06:17:33.858Z,6.97
2018-03-19T06:20:02.014Z,6.30
2018-03-19T06:22:30.158Z,6.97
2018-03-19T06:24:58.333Z,6.87
2018-03-19T06:27:26.508Z,6.90
2018-03-19T06:29:54.664Z,6.20
2018-03-19T06:32:22.794Z,6.97
2018-03-19T06:34:50.941Z,7.20
2018-03-19T06:37:19.135Z,6.27
2018-03-19T06:39:47.341Z,7.10
2018-03-19T06:42:15.488Z,7.03
2018-03-19T06:44:43.648Z,6.53
2018-03-19T06:47:11.825Z,6.63
2018-03-19T06:49:39.945Z,7.27
2018-03-19T06:52:08.098Z,6.70
2018-03-19T06:54:36.247Z,7.40
2018-03-19T06:57:04.398Z,6.50
2018-03-19T06:59:32.540Z,6.83
2018-03-19T07:02:00.688Z,7.07
2018-03-19T07:04:28.839Z,6.23
2018-03-19T07:06:56.964Z,7.00
2018-03-19T07:09:25.107Z,6.87
2018-03-19T07:11:53.267Z,6.93
2018-03-19T07:14:21.401Z,6.90
2018-03-19T07:16:49.553Z,7.40
2018-03-19T07:19:17.686Z,6.70
2018-03-19T07:21:45.896Z,6.77
2018-03-19T07:24:14.028Z,6.97
2018-03-19T07:26:42.157Z,7.67
2018-03-19T07:29:10.291Z,6.97
2018-03-19T07:31:38.458Z,6.73
2018-03-19T07:34:06.611Z,6.73
2018-03-19T07:36:34.750Z,7.03
2018-03-19T07:39:02.932Z,7.07
2018-03-19T07:41:31.071Z,7.27
2018-03-19T07:43:59.227Z,6.70
2018-03-19T07:46:27.361Z,6.87
2018-03-19T07:48:55.481Z,6.63
2018-03-19T07:51:23.605Z,7.43
2018-03-19T07:53:51.732Z,7.80
2018-03-19T07:56:19.906Z,7.47
2018-03-19T07:58:48.051Z,7.43
2018-03-19T08:01:16.182Z,7.30
2018-03-19T08:03:44.317Z,7.20
2018-03-19T08:06:12.461Z,7.27
2018-03-19T08:08:40.616Z,7.13
2018-03-19T08:11:08.774Z,7.00
2018-03-19T08:13:36.910Z,6.77
2018-03-19T08:16:05.050Z,7.73
2018-03-19T08:18:33.262Z,7.07
2018-03-19T08:21:01.445Z,7.70
2018-03-19T08:23:29.624Z,8.07
2018-03-19T08:25:57.914Z,7.13
2018-03-19T08:28:26.055Z,7.53
2018-03-19T08:30:54.564Z,7.33
2018-03-19T08:33:22.687Z,7.43
2018-03-19T08:35:50.830Z,7.63
2018-03-19T08:38:18.947Z,7.13
2018-03-19T08:40:47.089Z,7.27
2018-03-19T08:43:15.217Z,7.10
2018-03-19T08:45:43.365Z,6.90
2018-03-19T08:48:11.492Z,7.40
2018-03-19T08:50:39.640Z,7.00
2018-03-19T08:53:07.821Z,6.97
2018-03-19T08:55:35.957Z,8.17
2018-03-19T08:58:04.096Z,6.97
2018-03-19T09:00:32.227Z,7.10
2018-03-19T09:03:00.378Z,6.97
2018-03-19T09:05:28.507Z,7.13
2018-03-19T09:07:56.651Z,7.10
2018-03-19T09:10:24.785Z,7.80
2018-03-19T09:12:52.921Z,7.47
2018-03-19T09:15:21.053Z,7.80
2018-03-19T09:17:49.210Z,7.27
2018-03-19T09:20:18.350Z,7.70
2018-03-19T09:22:46.492Z,7.17
2018-03-19T09:25:14.698Z,7.30
2018-03-19T09:27:42.794Z,7.97
2018-03-19T09:30:10.941Z,7.03
2018-03-19T09:32:39.071Z,7.37
2018-03-19T09:35:07.230Z,7.33
2018-03-19T09:37:35.363Z,7.53
2018-03-19T09:40:03.494Z,8.33
2018-03-19T09:42:31.659Z,7.27
2018-03-19T09:44:59.793Z,7.43
2018-03-19T09:47:27.950Z,7.60
2018-03-19T09:49:56.119Z,7.77
2018-03-19T09:52:24.321Z,7.47
2018-03-19T09:54:52.457Z,7.53
2018-03-19T09:57:20.617Z,7.63
2018-03-19T09:59:48.734Z,7.83
2018-03-19T10:02:16.904Z,7.40
2018-03-19T10:04:45.063Z,8.17
2018-03-19T10:07:13.219Z,8.33
2018-03-19T10:09:41.352Z,7.80
2018-03-19T10:12:10.479Z,7.23
2018-03-19T10:14:38.715Z,7.97
2018-03-19T10:17:06.855Z,7.90
2018-03-19T10:19:34.984Z,7.67
2018-03-19T10:22:03.139Z,7.30
2018-03-19T10:24:31.302Z,7.30
2018-03-19T10:26:59.463Z,7.60
2018-03-19T10:29:27.614Z,7.77
2018-03-19T10:31:55.771Z,6.97
2018-03-19T10:34:23.917Z,7.47
2018-03-19T10:36:52.076Z,7.90
2018-03-19T10:39:23.160Z,7.73
2018-03-19T10:41:51.314Z,7.20
2018-03-19T10:44:19.461Z,7.10
2018-03-19T10:46:47.598Z,7.47
2018-03-19T10:49:15.756Z,7.90
2018-03-19T10:51:43.895Z,7.70
2018-03-19T10:54:12.024Z,7.57
2018-03-19T10:56:40.158Z,7.60
2018-03-19T10:59:08.341Z,7.83
2018-03-19T11:01:42.197Z,7.70
2018-03-19T11:04:11.256Z,7.70
2018-03-19T11:07:00.146Z,8.27
2018-03-19T11:09:30.207Z,8.10
2018-03-19T11:11:58.387Z,8.17
2018-03-19T11:14:27.393Z,7.57
2018-03-19T11:16:55.555Z,7.60
2018-03-19T11:19:23.701Z,8.13
2018-03-19T11:21:51.846Z,7.53
2018-03-19T11:24:20.028Z,7.43
2018-03-19T11:26:48.200Z,7.70
2018-03-19T11:29:16.340Z,7.80
2018-03-19T11:31:44.472Z,8.00
2018-03-19T11:34:12.606Z,8.20
2018-03-19T11:36:40.779Z,7.20
2018-03-19T11:39:08.912Z,8.10
2018-03-19T11:41:37.053Z,7.90
2018-03-19T11:44:05.187Z,7.63
2018-03-19T11:46:33.372Z,7.77
2018-03-19T11:49:01.521Z,7.93
2018-03-19T11:51:29.668Z,7.83
2018-03-19T11:53:57.810Z,7.83
2018-03-19T11:56:25.953Z,8.03
2018-03-19T11:58:54.075Z,7.73
2018-03-19T12:01:22.228Z,7.67
2018-03-19T12:03:50.352Z,6.47
2018-03-19T12:06:18.488Z,6.97
2018-03-19T12:08:46.610Z,8.03
2018-03-19T12:11:14.777Z,7.50
2018-03-19T12:13:42.957Z,7.17
2018-03-19T12:16:11.103Z,6.77
2018-03-19T12:18:39.279Z,7.00
2018-03-19T12:21:07.415Z,7.13
2018-03-19T12:23:35.551Z,6.30
2018-03-19T12:26:03.700Z,7.07
2018-03-19T12:28:31.843Z,6.93
2018-03-19T12:31:00.023Z,6.90
2018-03-19T12:33:28.206Z,6.90
2018-03-19T12:35:56.356Z,6.87
2018-03-19T12:38:24.513Z,6.47
2018-03-19T12:40:52.837Z,6.47
2018-03-19T12:43:20.997Z,6.33
2018-03-19T12:45:49.194Z,6.57
2018-03-19T12:48:20.717Z,6.43
2018-03-19T12:50:52.912Z,6.27
2018-03-19T12:53:21.019Z,6.23
2018-03-19T12:55:49.300Z,6.00
2018-03-19T12:58:17.426Z,6.07
2018-03-19T13:00:45.574Z,5.70
2018-03-19T13:03:15.668Z,5.77
2018-03-19T13:05:43.799Z,5.87
2018-03-19T13:08:15.151Z,5.73
2018-03-19T13:10:43.307Z,5.60
2018-03-19T13:13:11.458Z,5.60
2018-03-19T13:15:39.632Z,6.50
2018-03-19T13:18:08.028Z,6.00
2018-03-19T13:20:36.124Z,5.83
2018-03-19T13:23:04.272Z,6.50
2018-03-19T13:25:32.441Z,6.53
2018-03-19T13:28:00.581Z,5.53
2018-03-19T13:30:28.729Z,5.93
2018-03-19T13:32:56.863Z,5.87
2018-03-19T13:35:25.005Z,6.47
2018-03-19T13:37:53.174Z,6.30
2018-03-19T13:40:21.340Z,6.10
2018-03-19T13:42:49.497Z,5.90
2018-03-19T13:45:17.664Z,5.87
2018-03-19T13:47:45.797Z,6.07
2018-03-19T13:50:13.933Z,6.03
2018-03-19T13:52:42.099Z,6.23
2018-03-19T13:55:10.224Z,6.07
2018-03-19T13:57:38.370Z,5.90
2018-03-19T14:00:06.515Z,6.13
2018-03-19T14:02:34.658Z,5.73
2018-03-19T14:05:02.793Z,6.13
2018-03-19T14:07:30.956Z,5.80
2018-03-19T14:09:59.098Z,6.23
2018-03-19T14:12:27.320Z,5.70
2018-03-19T14:14:55.579Z,5.93
2018-03-19T14:17:23.719Z,5.87
2018-03-19T14:19:51.883Z,5.77
2018-03-19T14:22:20.039Z,6.17
2018-03-19T14:24:48.192Z,6.13
2018-03-19T14:27:16.330Z,5.97
2018-03-19T14:29:44.469Z,6.30
2018-03-19T14:32:12.619Z,6.40
2018-03-19T14:34:40.755Z,6.20
2018-03-19T14:37:08.951Z,5.83
2018-03-19T14:39:37.099Z,5.60
2018-03-19T14:42:08.961Z,5.27
2018-03-19T14:44:37.129Z,6.20
2018-03-19T14:47:05.252Z,6.00
2018-03-19T14:49:33.407Z,6.10
2018-03-19T14:52:01.554Z,6.47
2018-03-19T14:54:29.695Z,6.10
2018-03-19T14:56:57.883Z,6.20
2018-03-19T14:59:26.064Z,6.27
2018-03-19T15:01:54.187Z,6.20
2018-03-19T15:04:22.328Z,6.23
2018-03-19T15:06:50.476Z,6.17
2018-03-19T15:09:18.616Z,6.60
2018-03-19T15:11:49.772Z,6.40
2018-03-19T15:14:18.090Z,6.67
2018-03-19T15:16:46.238Z,5.77
2018-03-19T15:19:14.412Z,6.47
2018-03-19T15:21:42.545Z,6.53
2018-03-19T15:24:10.715Z,6.10
2018-03-19T15:26:38.999Z,6.20
2018-03-19T15:29:07.154Z,6.23
2018-03-19T15:31:35.275Z,6.53
2018-03-19T15:34:03.440Z,5.93
2018-03-19T15:36:31.602Z,6.43
2018-03-19T15:38:59.765Z,6.67
2018-03-19T15:41:27.911Z,6.33
2018-03-19T15:43:56.089Z,5.93
2018-03-19T15:46:24.214Z,6.47
2018-03-19T15:48:52.359Z,6.60
2018-03-19T15:51:20.506Z,5.67
2018-03-19T15:53:48.644Z,6.50
2018-03-19T15:56:17.132Z,5.80
2018-03-19T15:58:45.317Z,6.60
2018-03-19T16:01:13.433Z,7.33
2018-03-19T16:03:41.570Z,6.30
2018-03-19T16:06:09.739Z,6.60
2018-03-19T16:08:37.906Z,6.70
2018-03-19T16:11:06.050Z,6.43
2018-03-19T16:13:34.190Z,6.50
2018-03-19T16:16:02.356Z,6.50
2018-03-19T16:18:30.516Z,6.20
2018-03-19T16:20:58.636Z,6.70
2018-03-19T16:23:26.765Z,6.97
2018-03-19T16:25:54.912Z,6.27
2018-03-19T16:28:23.887Z,6.80
2018-03-19T16:30:52.027Z,6.63
2018-03-19T16:33:20.373Z,6.20
2018-03-19T16:35:48.542Z,6.67
2018-03-19T16:38:16.670Z,6.60
2018-03-19T16:40:44.940Z,7.27
2018-03-19T16:43:13.094Z,6.60
2018-03-19T16:45:45.023Z,6.37
2018-03-19T16:48:13.190Z,6.03
2018-03-19T16:50:41.360Z,6.30
2018-03-19T16:53:09.512Z,6.60
2018-03-19T16:55:37.654Z,6.30
2018-03-19T16:58:05.833Z,6.83
2018-03-19T17:00:34.004Z,6.30
2018-03-19T17:03:02.144Z,6.13
2018-03-19T17:05:30.284Z,5.53
2018-03-19T17:07:58.433Z,6.03
2018-03-19T17:10:26.580Z,5.90
2018-03-19T17:12:54.770Z,6.47
2018-03-19T17:15:22.916Z,5.53
2018-03-19T17:17:51.066Z,6.30
2018-03-19T17:20:19.212Z,6.90
2018-03-19T17:22:47.356Z,6.43
2018-03-19T17:25:15.612Z,6.27
2018-03-19T17:27:43.822Z,6.20
2018-03-19T17:30:11.982Z,6.17
2018-03-19T17:32:40.130Z,5.73
2018-03-19T17:35:08.303Z,5.77
2018-03-19T17:37:36.469Z,4.87
2018-03-19T17:40:04.604Z,5.37
2018-03-19T17:42:32.753Z,4.90
2018-03-19T17:45:00.875Z,5.00
2018-03-19T17:47:29.038Z,5.30
2018-03-19T17:49:57.174Z,4.73
2018-03-19T17:52:26.153Z,5.07
2018-03-19T17:54:54.314Z,5.70
2018-03-19T17:57:22.441Z,5.80
2018-03-19T17:59:50.578Z,5.10
2018-03-19T18:02:18.703Z,5.00
2018-03-19T18:04:46.855Z,5.77
2018-03-19T18:07:14.988Z,5.60
2018-03-19T18:09:43.119Z,5.43
2018-03-19T18:12:11.284Z,5.53
2018-03-19T18:14:39.421Z,5.77
2018-03-19T18:17:07.571Z,5.27
2018-03-19T18:19:35.730Z,5.70
2018-03-19T18:22:03.872Z,5.37
2018-03-19T18:24:32.091Z,5.73
2018-03-19T18:27:00.235Z,5.20
2018-03-19T18:29:28.357Z,5.90
2018-03-19T18:31:56.524Z,5.80
2018-03-19T18:34:24.648Z,5.97
2018-03-19T18:36:52.786Z,5.30
2018-03-19T18:39:20.927Z,5.93
2018-03-19T18:41:49.063Z,5.33
2018-03-19T18:44:17.215Z,5.57
2018-03-19T18:46:45.377Z,5.23
2018-03-19T18:49:16.656Z,5.33
2018-03-19T18:51:44.811Z,5.40
2018-03-19T18:54:13.003Z,5.20
2018-03-19T18:56:41.143Z,5.57
2018-03-19T18:59:09.310Z,5.10
2018-03-19T19:01:37.455Z,4.47
2018-03-19T19:04:05.608Z,4.80
2018-03-19T19:06:33.746Z,5.37
2018-03-19T19:09:01.887Z,5.17
2018-03-19T19:11:30.078Z,4.90
2018-03-19T19:13:58.217Z,4.70
2018-03-19T19:16:26.359Z,4.77
2018-03-19T19:18:54.500Z,4.80
2018-03-19T19:21:23.541Z,5.07
2018-03-19T19:23:51.700Z,4.80
2018-03-19T19:26:19.845Z,4.60
2018-03-19T19:28:47.992Z,4.60
2018-03-19T19:31:16.184Z,5.17
2018-03-19T19:33:44.363Z,4.60
2018-03-19T19:36:12.528Z,4.63
2018-03-19T19:38:40.695Z,5.03
2018-03-19T19:41:08.832Z,5.10
2018-03-19T19:43:36.986Z,4.90
2018-03-19T19:46:05.124Z,5.07
2018-03-19T19:48:33.260Z,4.77
2018-03-19T19:51:01.390Z,4.93
2018-03-19T19:53:29.548Z,4.90
2018-03-19T19:55:57.686Z,4.97
2018-03-19T19:58:25.808Z,4.57
2018-03-19T20:00:54.460Z,5.07
2018-03-19T20:03:22.623Z,4.60
2018-03-19T20:05:50.747Z,5.17
2018-03-19T20:08:18.898Z,5.47
2018-03-19T20:10:47.032Z,5.87
2018-03-19T20:13:15.171Z,5.33
2018-03-19T20:15:43.327Z,4.80
2018-03-19T20:18:11.457Z,5.30
2018-03-19T20:20:39.644Z,5.47
2018-03-19T20:23:07.800Z,5.17
2018-03-19T20:25:35.967Z,6.23
2018-03-19T20:28:04.241Z,5.60
2018-03-19T20:30:32.510Z,5.77
2018-03-19T20:33:00.617Z,6.03
2018-03-19T20:35:28.763Z,5.77
2018-03-19T20:37:56.902Z,5.80
2018-03-19T20:40:25.065Z,5.90
2018-03-19T20:42:53.210Z,6.27
2018-03-19T20:45:21.324Z,6.30
2018-03-19T20:47:49.495Z,5.93
2018-03-19T20:50:17.615Z,5.50
2018-03-19T20:52:45.771Z,5.70
2018-03-19T20:55:13.910Z,6.13
2018-03-19T20:57:42.116Z,5.97
2018-03-19T21:00:10.268Z,5.90
2018-03-19T21:02:38.418Z,5.70
2018-03-19T21:05:06.570Z,6.50
2018-03-19T21:07:34.709Z,6.07
2018-03-19T21:10:02.864Z,5.67
2018-03-19T21:12:31.051Z,5.97
2018-03-19T21:14:59.175Z,7.17
2018-03-19T21:17:27.306Z,6.57
2018-03-19T21:19:55.450Z,6.83
2018-03-19T21:22:23.618Z,7.10
2018-03-19T21:24:51.771Z,6.53
2018-03-19T21:27:19.909Z,7.27
2018-03-19T21:29:48.073Z,6.90
2018-03-19T21:32:16.208Z,7.33
2018-03-19T21:34:44.418Z,6.93
2018-03-19T21:37:12.594Z,7.30
2018-03-19T21:39:44.569Z,7.93
2018-03-19T21:42:12.727Z,7.20
2018-03-19T21:44:41.027Z,7.47
2018-03-19T21:47:09.231Z,7.40
2018-03-19T21:49:37.368Z,7.07
2018-03-19T21:52:05.493Z,7.13
2018-03-19T21:54:33.633Z,7.00
2018-03-19T21:57:01.800Z,6.70
2018-03-19T21:59:29.938Z,6.63
2018-03-19T22:01:58.062Z,7.13
2018-03-19T22:04:26.200Z,6.47
2018-03-19T22:06:54.359Z,6.70
2018-03-19T22:09:22.522Z,6.47
2018-03-19T22:11:50.651Z,6.97
2018-03-19T22:14:18.827Z,6.77
2018-03-19T22:16:46.959Z,7.73
2018-03-19T22:19:15.113Z,6.83
2018-03-19T22:21:43.258Z,7.17
2018-03-19T22:24:11.489Z,7.17
2018-03-19T22:26:39.673Z,7.00
2018-03-19T22:29:08.000Z,7.23
2018-03-19T22:31:36.378Z,7.30
2018-03-19T22:34:04.733Z,7.43
2018-03-19T22:36:33.799Z,6.93
2018-03-19T22:39:02.034Z,6.60
2018-03-19T22:41:30.173Z,7.53
2018-03-19T22:43:58.603Z,6.37
2018-03-19T22:46:27.094Z,7.37
2018-03-19T22:48:55.351Z,7.67
2018-03-19T22:51:23.746Z,7.40
2018-03-19T22:53:52.139Z,7.23
2018-03-19T22:56:20.324Z,7.10
2018-03-19T22:58:48.576Z,8.03
2018-03-19T23:01:16.787Z,7.20
2018-03-19T23:03:45.164Z,7.03
2018-03-19T23:06:13.350Z,7.83
2018-03-19T23:08:41.900Z,7.00
2018-03-19T23:11:10.030Z,7.23
2018-03-19T23:13:38.259Z,8.07
2018-03-19T23:16:06.380Z,7.47
2018-03-19T23:18:34.516Z,7.77
2018-03-19T23:21:02.659Z,7.73
2018-03-19T23:23:30.874Z,7.43
2018-03-19T23:25:59.373Z,7.20
2018-03-19T23:28:27.632Z,7.27
2018-03-19T23:30:55.789Z,7.47
2018-03-19T23:33:23.938Z,7.33
2018-03-19T23:35:52.140Z,7.50
2018-03-19T23:38:20.514Z,7.53
2018-03-19T23:40:48.810Z,7.17
2018-03-19T23:43:17.070Z,8.40
2018-03-19T23:45:45.374Z,8.00
2018-03-19T23:48:13.674Z,7.20
2018-03-19T23:50:41.846Z,7.73
2018-03-19T23:53:09.980Z,7.10
2018-03-19T23:55:38.112Z,7.67
2018-03-19T23:58:06.241Z,7.30
